sensor_id;sensor_type;location;lat;lon;timestamp;P1;durP1;ratioP1;P2;durP2;ratioP2
19384;SDS011;9828;54.122;17.974;2023-04-01T00:04:32;16.97;;;11.33;;
19384;SDS011;9828;54.122;17.974;2023-04-01T00:09:53;17.73;;;12.63;;
19384;SDS011;9828;54.122;17.974;2023-04-01T00:15:15;19.40;;;12.63;;
19384;SDS011;9828;54.122;17.974;2023-04-01T00:20:36;19.93;;;12.77;;
19384;SDS011;9828;54.122;17.974;2023-04-01T00:25:59;23.20;;;14.80;;
19384;SDS011;9828;54.122;17.974;2023-04-01T00:31:21;22.23;;;14.50;;
19384;SDS011;9828;54.122;17.974;2023-04-01T00:36:42;27.07;;;15.53;;
19384;SDS011;9828;54.122;17.974;2023-04-01T00:42:03;27.03;;;15.10;;
19384;SDS011;9828;54.122;17.974;2023-04-01T00:47:25;26.03;;;14.30;;
19384;SDS011;9828;54.122;17.974;2023-04-01T00:52:47;17.00;;;11.47;;
19384;SDS011;9828;54.122;17.974;2023-04-01T00:58:09;18.17;;;11.70;;
19384;SDS011;9828;54.122;17.974;2023-04-01T01:03:35;16.93;;;9.87;;
19384;SDS011;9828;54.122;17.974;2023-04-01T01:26:06;5.37;;;4.20;;
19384;SDS011;9828;54.122;17.974;2023-04-01T01:37:41;9.00;;;6.23;;
19384;SDS011;9828;54.122;17.974;2023-04-01T01:43:05;8.83;;;6.10;;
19384;SDS011;9828;54.122;17.974;2023-04-01T01:48:29;11.93;;;7.83;;
19384;SDS011;9828;54.122;17.974;2023-04-01T01:53:52;9.57;;;6.97;;
19384;SDS011;9828;54.122;17.974;2023-04-01T01:59:18;12.30;;;8.30;;
19384;SDS011;9828;54.122;17.974;2023-04-01T02:04:44;17.17;;;10.80;;
19384;SDS011;9828;54.122;17.974;2023-04-01T02:10:07;10.43;;;8.67;;
19384;SDS011;9828;54.122;17.974;2023-04-01T02:15:32;10.77;;;7.47;;
19384;SDS011;9828;54.122;17.974;2023-04-01T02:20:58;5.33;;;4.80;;
19384;SDS011;9828;54.122;17.974;2023-04-01T02:26:21;4.67;;;2.97;;
19384;SDS011;9828;54.122;17.974;2023-04-01T02:31:43;4.10;;;2.80;;
19384;SDS011;9828;54.122;17.974;2023-04-01T02:37:05;3.60;;;3.03;;
19384;SDS011;9828;54.122;17.974;2023-04-01T02:42:27;3.13;;;2.80;;
19384;SDS011;9828;54.122;17.974;2023-04-01T02:47:48;3.90;;;3.40;;
19384;SDS011;9828;54.122;17.974;2023-04-01T02:53:09;5.73;;;4.03;;
19384;SDS011;9828;54.122;17.974;2023-04-01T02:58:30;9.13;;;5.80;;
19384;SDS011;9828;54.122;17.974;2023-04-01T03:03:51;4.17;;;2.93;;
19384;SDS011;9828;54.122;17.974;2023-04-01T03:09:13;3.50;;;2.77;;
19384;SDS011;9828;54.122;17.974;2023-04-01T03:14:34;2.97;;;2.67;;
19384;SDS011;9828;54.122;17.974;2023-04-01T03:19:55;3.73;;;2.70;;
19384;SDS011;9828;54.122;17.974;2023-04-01T03:25:17;3.53;;;2.73;;
19384;SDS011;9828;54.122;17.974;2023-04-01T03:30:38;3.10;;;2.50;;
19384;SDS011;9828;54.122;17.974;2023-04-01T03:36:00;4.67;;;3.50;;
19384;SDS011;9828;54.122;17.974;2023-04-01T03:41:21;5.17;;;3.73;;
19384;SDS011;9828;54.122;17.974;2023-04-01T03:46:42;3.67;;;3.30;;
19384;SDS011;9828;54.122;17.974;2023-04-01T03:52:04;11.47;;;7.30;;
19384;SDS011;9828;54.122;17.974;2023-04-01T03:57:28;4.77;;;3.93;;
19384;SDS011;9828;54.122;17.974;2023-04-01T04:02:56;4.67;;;3.17;;
19384;SDS011;9828;54.122;17.974;2023-04-01T04:08:23;4.93;;;3.87;;
19384;SDS011;9828;54.122;17.974;2023-04-01T04:13:44;4.27;;;3.50;;
19384;SDS011;9828;54.122;17.974;2023-04-01T04:19:06;7.10;;;4.97;;
19384;SDS011;9828;54.122;17.974;2023-04-01T04:24:27;17.33;;;11.47;;
19384;SDS011;9828;54.122;17.974;2023-04-01T04:30:08;21.63;;;11.93;;
19384;SDS011;9828;54.122;17.974;2023-04-01T04:35:30;11.33;;;8.43;;
19384;SDS011;9828;54.122;17.974;2023-04-01T04:40:51;24.50;;;14.23;;
19384;SDS011;9828;54.122;17.974;2023-04-01T04:46:12;10.47;;;7.37;;
19384;SDS011;9828;54.122;17.974;2023-04-01T04:51:34;5.43;;;4.70;;
19384;SDS011;9828;54.122;17.974;2023-04-01T04:56:56;8.73;;;6.00;;
19384;SDS011;9828;54.122;17.974;2023-04-01T05:02:18;13.93;;;8.93;;
19384;SDS011;9828;54.122;17.974;2023-04-01T05:07:40;7.73;;;5.53;;
19384;SDS011;9828;54.122;17.974;2023-04-01T05:13:01;7.43;;;5.47;;
19384;SDS011;9828;54.122;17.974;2023-04-01T05:18:22;16.10;;;11.03;;
19384;SDS011;9828;54.122;17.974;2023-04-01T05:23:44;12.57;;;7.77;;
19384;SDS011;9828;54.122;17.974;2023-04-01T05:29:05;21.37;;;11.60;;
19384;SDS011;9828;54.122;17.974;2023-04-01T05:34:27;8.97;;;5.63;;
19384;SDS011;9828;54.122;17.974;2023-04-01T05:39:48;16.67;;;9.17;;
19384;SDS011;9828;54.122;17.974;2023-04-01T05:45:10;9.07;;;6.30;;
19384;SDS011;9828;54.122;17.974;2023-04-01T05:50:54;14.13;;;9.50;;
19384;SDS011;9828;54.122;17.974;2023-04-01T05:56:15;12.20;;;6.83;;
19384;SDS011;9828;54.122;17.974;2023-04-01T06:01:41;22.03;;;13.87;;
19384;SDS011;9828;54.122;17.974;2023-04-01T06:07:16;18.07;;;11.90;;
19384;SDS011;9828;54.122;17.974;2023-04-01T06:18:28;7.00;;;5.57;;
19384;SDS011;9828;54.122;17.974;2023-04-01T06:46:48;9.80;;;7.43;;
19384;SDS011;9828;54.122;17.974;2023-04-01T06:53:12;14.70;;;9.93;;
19384;SDS011;9828;54.122;17.974;2023-04-01T06:59:12;9.23;;;5.83;;
19384;SDS011;9828;54.122;17.974;2023-04-01T07:04:49;18.47;;;10.30;;
19384;SDS011;9828;54.122;17.974;2023-04-01T07:10:23;25.77;;;15.37;;
19384;SDS011;9828;54.122;17.974;2023-04-01T07:21:48;26.93;;;14.03;;
19384;SDS011;9828;54.122;17.974;2023-04-01T07:27:26;49.63;;;23.87;;
19384;SDS011;9828;54.122;17.974;2023-04-01T07:33:08;30.37;;;15.90;;
19384;SDS011;9828;54.122;17.974;2023-04-01T07:45:24;7.43;;;5.17;;
19384;SDS011;9828;54.122;17.974;2023-04-01T07:56:18;4.03;;;2.83;;
19384;SDS011;9828;54.122;17.974;2023-04-01T08:14:13;11.23;;;5.23;;
19384;SDS011;9828;54.122;17.974;2023-04-01T08:31:50;4.13;;;3.00;;
19384;SDS011;9828;54.122;17.974;2023-04-01T08:37:17;31.57;;;15.73;;
19384;SDS011;9828;54.122;17.974;2023-04-01T08:49:06;6.47;;;3.57;;
19384;SDS011;9828;54.122;17.974;2023-04-01T09:12:14;20.57;;;11.23;;
19384;SDS011;9828;54.122;17.974;2023-04-01T09:35:19;8.60;;;5.53;;
19384;SDS011;9828;54.122;17.974;2023-04-01T09:40:55;5.20;;;4.70;;
19384;SDS011;9828;54.122;17.974;2023-04-01T10:10:50;12.03;;;8.10;;
19384;SDS011;9828;54.122;17.974;2023-04-01T11:02:38;5.07;;;2.83;;
19384;SDS011;9828;54.122;17.974;2023-04-01T11:08:31;5.53;;;3.10;;
19384;SDS011;9828;54.122;17.974;2023-04-01T11:37:50;4.87;;;3.60;;
19384;SDS011;9828;54.122;17.974;2023-04-01T11:43:35;6.70;;;3.70;;
19384;SDS011;9828;54.122;17.974;2023-04-01T11:49:47;10.77;;;5.27;;
19384;SDS011;9828;54.122;17.974;2023-04-01T11:55:29;5.63;;;3.37;;
19384;SDS011;9828;54.122;17.974;2023-04-01T12:01:30;10.47;;;6.67;;
19384;SDS011;9828;54.122;17.974;2023-04-01T12:47:07;5.40;;;4.83;;
19384;SDS011;9828;54.122;17.974;2023-04-01T13:32:42;5.63;;;3.17;;
19384;SDS011;9828;54.122;17.974;2023-04-01T14:23:07;9.20;;;4.53;;
19384;SDS011;9828;54.122;17.974;2023-04-01T14:34:24;11.17;;;7.17;;
19384;SDS011;9828;54.122;17.974;2023-04-01T15:02:38;6.03;;;3.33;;
19384;SDS011;9828;54.122;17.974;2023-04-01T15:47:35;11.90;;;7.30;;
19384;SDS011;9828;54.122;17.974;2023-04-01T15:53:03;9.90;;;7.13;;
19384;SDS011;9828;54.122;17.974;2023-04-01T15:58:46;10.03;;;6.33;;
19384;SDS011;9828;54.122;17.974;2023-04-01T16:21:42;12.03;;;6.90;;
19384;SDS011;9828;54.122;17.974;2023-04-01T16:27:45;12.07;;;7.57;;
19384;SDS011;9828;54.122;17.974;2023-04-01T16:39:06;18.57;;;7.87;;
19384;SDS011;9828;54.122;17.974;2023-04-01T16:44:29;15.00;;;7.80;;
19384;SDS011;9828;54.122;17.974;2023-04-01T16:49:52;9.27;;;5.87;;
19384;SDS011;9828;54.122;17.974;2023-04-01T16:55:20;13.93;;;7.83;;
19384;SDS011;9828;54.122;17.974;2023-04-01T17:00:49;14.00;;;7.33;;
19384;SDS011;9828;54.122;17.974;2023-04-01T17:12:17;13.47;;;6.47;;
19384;SDS011;9828;54.122;17.974;2023-04-01T17:17:45;18.60;;;9.03;;
19384;SDS011;9828;54.122;17.974;2023-04-01T17:23:13;9.33;;;6.13;;
19384;SDS011;9828;54.122;17.974;2023-04-01T17:46:34;7.57;;;4.73;;
19384;SDS011;9828;54.122;17.974;2023-04-01T17:52:03;9.60;;;4.87;;
19384;SDS011;9828;54.122;17.974;2023-04-01T18:03:47;8.57;;;4.93;;
19384;SDS011;9828;54.122;17.974;2023-04-01T18:25:54;9.37;;;5.30;;
19384;SDS011;9828;54.122;17.974;2023-04-01T18:31:38;9.50;;;4.73;;
19384;SDS011;9828;54.122;17.974;2023-04-01T18:43:12;10.40;;;4.67;;
19384;SDS011;9828;54.122;17.974;2023-04-01T18:49:41;10.07;;;4.60;;
19384;SDS011;9828;54.122;17.974;2023-04-01T19:00:45;5.87;;;3.93;;
19384;SDS011;9828;54.122;17.974;2023-04-01T19:06:28;7.63;;;4.50;;
19384;SDS011;9828;54.122;17.974;2023-04-01T19:17:45;9.17;;;4.73;;
19384;SDS011;9828;54.122;17.974;2023-04-01T19:39:51;9.23;;;5.73;;
19384;SDS011;9828;54.122;17.974;2023-04-01T19:45:33;9.30;;;5.23;;
19384;SDS011;9828;54.122;17.974;2023-04-01T19:51:10;7.10;;;4.73;;
19384;SDS011;9828;54.122;17.974;2023-04-01T20:02:57;5.47;;;4.17;;
19384;SDS011;9828;54.122;17.974;2023-04-01T20:31:28;6.87;;;4.23;;
19384;SDS011;9828;54.122;17.974;2023-04-01T21:00:35;10.60;;;3.97;;
19384;SDS011;9828;54.122;17.974;2023-04-01T21:06:02;6.17;;;3.90;;
19384;SDS011;9828;54.122;17.974;2023-04-01T21:11:39;7.53;;;4.40;;
19384;SDS011;9828;54.122;17.974;2023-04-01T21:17:13;6.17;;;3.20;;
19384;SDS011;9828;54.122;17.974;2023-04-01T21:28:29;5.50;;;3.53;;
19384;SDS011;9828;54.122;17.974;2023-04-01T21:51:20;3.57;;;2.53;;
19384;SDS011;9828;54.122;17.974;2023-04-01T22:14:12;3.17;;;2.33;;
19384;SDS011;9828;54.122;17.974;2023-04-01T22:19:40;3.20;;;1.90;;
19384;SDS011;9828;54.122;17.974;2023-04-01T22:30:47;2.57;;;2.07;;
19384;SDS011;9828;54.122;17.974;2023-04-01T22:36:25;4.17;;;2.27;;
19384;SDS011;9828;54.122;17.974;2023-04-01T23:04:43;3.20;;;2.20;;
19384;SDS011;9828;54.122;17.974;2023-04-01T23:10:12;3.53;;;2.07;;
19384;SDS011;9828;54.122;17.974;2023-04-01T23:15:42;3.63;;;2.40;;
19384;SDS011;9828;54.122;17.974;2023-04-01T23:32:41;5.20;;;2.70;;
19384;SDS011;9828;54.122;17.974;2023-04-01T23:38:02;4.57;;;2.40;;
19384;SDS011;9828;54.122;17.974;2023-04-01T23:43:28;7.63;;;3.00;;
19384;SDS011;9828;54.122;17.974;2023-04-01T23:48:52;4.83;;;2.40;;
19384;SDS011;9828;54.122;17.974;2023-04-01T23:54:18;3.93;;;2.20;;
19384;SDS011;9828;54.122;17.974;2023-04-01T23:59:40;4.10;;;2.50;;
